KFEW/FEW METAR and TAF weather

Enter ICAO airport designator
Station Type Date Time Source
KFEW METAR 2021/07/28 03:58 UTC NOAA

KFEW 280358Z AUTO 15006KT 10SM CLR 23/08 A3028 RMK AO2 SLPNO T02330077 $


Station Type Date Time Source
KFEW Decoded METAR 2021/07/28 03:58 UTC NOAA

Station name not available
Jul 27, 2021 - 11:58 PM EDT / 2021.07.28 0358 UTC
Wind: from the SSE (150 degrees) at 7 MPH (6 KT):0
Visibility: 10 mile(s):0
Sky conditions: clear
Temperature: 73.9 F (23.3 C)
Dew Point: 45.9 F (7.7 C)
Relative Humidity: 36%
Pressure (altimeter): 30.28 in. Hg (1025 hPa)
ob: KFEW 280358Z AUTO 15006KT 10SM CLR 23/08 A3028 RMK AO2 SLPNO T02330077
cycle: 4

Station Type Date Time Source
KFEW TAF UTC NOAA

Error!

Example: see airport list